sensor_id;sensor_type;location;lat;lon;timestamp;P1;durP1;ratioP1;P2;durP2;ratioP2
70727;SDS011;58314;47.722;17.652;2022-08-23T00:01:52;2.00;;;1.40;;
70727;SDS011;58314;47.722;17.652;2022-08-23T00:04:54;2.42;;;1.13;;
70727;SDS011;58314;47.722;17.652;2022-08-23T00:07:55;2.40;;;1.70;;
70727;SDS011;58314;47.722;17.652;2022-08-23T00:10:56;2.92;;;1.63;;
70727;SDS011;58314;47.722;17.652;2022-08-23T00:13:57;2.10;;;1.35;;
70727;SDS011;58314;47.722;17.652;2022-08-23T00:17:02;2.80;;;1.55;;
70727;SDS011;58314;47.722;17.652;2022-08-23T00:20:04;1.65;;;1.42;;
70727;SDS011;58314;47.722;17.652;2022-08-23T00:23:07;2.90;;;1.55;;
70727;SDS011;58314;47.722;17.652;2022-08-23T00:26:07;3.08;;;1.70;;
70727;SDS011;58314;47.722;17.652;2022-08-23T00:29:08;2.38;;;1.58;;
70727;SDS011;58314;47.722;17.652;2022-08-23T00:32:10;2.30;;;1.48;;
70727;SDS011;58314;47.722;17.652;2022-08-23T00:35:13;2.30;;;1.63;;
70727;SDS011;58314;47.722;17.652;2022-08-23T00:38:16;2.58;;;1.48;;
70727;SDS011;58314;47.722;17.652;2022-08-23T00:41:17;2.58;;;1.55;;
70727;SDS011;58314;47.722;17.652;2022-08-23T00:44:20;3.65;;;1.70;;
70727;SDS011;58314;47.722;17.652;2022-08-23T00:47:43;3.08;;;1.73;;
70727;SDS011;58314;47.722;17.652;2022-08-23T00:50:48;3.20;;;1.80;;
70727;SDS011;58314;47.722;17.652;2022-08-23T00:54:01;3.28;;;1.80;;
70727;SDS011;58314;47.722;17.652;2022-08-23T00:57:05;2.53;;;1.85;;
70727;SDS011;58314;47.722;17.652;2022-08-23T01:00:10;2.50;;;1.60;;
70727;SDS011;58314;47.722;17.652;2022-08-23T01:03:11;2.33;;;1.75;;
70727;SDS011;58314;47.722;17.652;2022-08-23T01:06:14;2.85;;;1.50;;
70727;SDS011;58314;47.722;17.652;2022-08-23T01:09:19;2.40;;;1.58;;
70727;SDS011;58314;47.722;17.652;2022-08-23T01:12:22;2.15;;;1.40;;
70727;SDS011;58314;47.722;17.652;2022-08-23T01:15:38;2.70;;;1.40;;
70727;SDS011;58314;47.722;17.652;2022-08-23T01:18:43;3.65;;;1.55;;
70727;SDS011;58314;47.722;17.652;2022-08-23T01:21:48;2.80;;;1.75;;
70727;SDS011;58314;47.722;17.652;2022-08-23T01:24:55;2.20;;;1.42;;
70727;SDS011;58314;47.722;17.652;2022-08-23T01:27:57;1.70;;;1.20;;
70727;SDS011;58314;47.722;17.652;2022-08-23T01:30:59;2.88;;;1.58;;
70727;SDS011;58314;47.722;17.652;2022-08-23T01:34:06;1.83;;;1.10;;
70727;SDS011;58314;47.722;17.652;2022-08-23T01:37:08;1.50;;;1.00;;
70727;SDS011;58314;47.722;17.652;2022-08-23T01:40:09;2.50;;;1.20;;
70727;SDS011;58314;47.722;17.652;2022-08-23T01:43:11;1.45;;;1.15;;
70727;SDS011;58314;47.722;17.652;2022-08-23T01:46:14;1.50;;;1.13;;
70727;SDS011;58314;47.722;17.652;2022-08-23T01:49:17;1.10;;;0.90;;
70727;SDS011;58314;47.722;17.652;2022-08-23T01:52:18;1.17;;;0.98;;
70727;SDS011;58314;47.722;17.652;2022-08-23T01:55:18;1.63;;;0.90;;
70727;SDS011;58314;47.722;17.652;2022-08-23T01:58:20;1.52;;;0.90;;
70727;SDS011;58314;47.722;17.652;2022-08-23T02:01:21;0.93;;;0.80;;
70727;SDS011;58314;47.722;17.652;2022-08-23T02:04:21;2.53;;;0.90;;
70727;SDS011;58314;47.722;17.652;2022-08-23T02:07:28;1.58;;;0.63;;
70727;SDS011;58314;47.722;17.652;2022-08-23T02:10:29;1.38;;;0.65;;
70727;SDS011;58314;47.722;17.652;2022-08-23T02:13:29;2.25;;;0.70;;
70727;SDS011;58314;47.722;17.652;2022-08-23T02:16:34;0.93;;;0.60;;
70727;SDS011;58314;47.722;17.652;2022-08-23T02:19:37;1.45;;;0.60;;
70727;SDS011;58314;47.722;17.652;2022-08-23T02:22:38;2.28;;;0.90;;
70727;SDS011;58314;47.722;17.652;2022-08-23T02:25:39;1.15;;;0.63;;
70727;SDS011;58314;47.722;17.652;2022-08-23T02:28:40;0.80;;;0.70;;
70727;SDS011;58314;47.722;17.652;2022-08-23T02:31:40;1.17;;;0.63;;
70727;SDS011;58314;47.722;17.652;2022-08-23T02:34:44;1.48;;;0.40;;
70727;SDS011;58314;47.722;17.652;2022-08-23T02:37:46;0.68;;;0.60;;
70727;SDS011;58314;47.722;17.652;2022-08-23T02:40:46;1.45;;;0.70;;
70727;SDS011;58314;47.722;17.652;2022-08-23T02:43:50;0.70;;;0.50;;
70727;SDS011;58314;47.722;17.652;2022-08-23T02:46:52;1.25;;;0.70;;
70727;SDS011;58314;47.722;17.652;2022-08-23T02:49:52;3.45;;;0.80;;
70727;SDS011;58314;47.722;17.652;2022-08-23T02:52:53;1.45;;;0.80;;
70727;SDS011;58314;47.722;17.652;2022-08-23T02:55:55;1.10;;;0.80;;
70727;SDS011;58314;47.722;17.652;2022-08-23T02:58:56;1.23;;;0.80;;
70727;SDS011;58314;47.722;17.652;2022-08-23T03:01:57;0.85;;;0.65;;
70727;SDS011;58314;47.722;17.652;2022-08-23T03:04:57;1.30;;;0.80;;
70727;SDS011;58314;47.722;17.652;2022-08-23T03:07:58;1.27;;;0.90;;
70727;SDS011;58314;47.722;17.652;2022-08-23T03:10:58;1.88;;;0.82;;
70727;SDS011;58314;47.722;17.652;2022-08-23T03:13:59;0.82;;;0.80;;
70727;SDS011;58314;47.722;17.652;2022-08-23T03:17:01;1.30;;;0.80;;
70727;SDS011;58314;47.722;17.652;2022-08-23T03:20:02;0.90;;;0.57;;
70727;SDS011;58314;47.722;17.652;2022-08-23T03:23:03;1.83;;;0.98;;
70727;SDS011;58314;47.722;17.652;2022-08-23T03:26:05;1.48;;;0.60;;
70727;SDS011;58314;47.722;17.652;2022-08-23T03:29:07;0.85;;;0.80;;
70727;SDS011;58314;47.722;17.652;2022-08-23T03:32:07;0.90;;;0.70;;
70727;SDS011;58314;47.722;17.652;2022-08-23T03:35:08;1.30;;;0.70;;
70727;SDS011;58314;47.722;17.652;2022-08-23T03:38:09;0.90;;;0.57;;
70727;SDS011;58314;47.722;17.652;2022-08-23T03:41:10;0.93;;;0.60;;
70727;SDS011;58314;47.722;17.652;2022-08-23T03:44:12;1.15;;;0.60;;
70727;SDS011;58314;47.722;17.652;2022-08-23T03:47:13;1.05;;;0.75;;
70727;SDS011;58314;47.722;17.652;2022-08-23T03:50:13;3.35;;;0.90;;
70727;SDS011;58314;47.722;17.652;2022-08-23T03:53:14;1.40;;;0.70;;
70727;SDS011;58314;47.722;17.652;2022-08-23T03:56:23;1.00;;;0.60;;
70727;SDS011;58314;47.722;17.652;2022-08-23T03:59:36;0.98;;;0.65;;
70727;SDS011;58314;47.722;17.652;2022-08-23T04:02:39;0.75;;;0.57;;
70727;SDS011;58314;47.722;17.652;2022-08-23T04:05:39;0.73;;;0.60;;
70727;SDS011;58314;47.722;17.652;2022-08-23T04:08:41;0.80;;;0.60;;
70727;SDS011;58314;47.722;17.652;2022-08-23T04:11:43;3.63;;;0.85;;
70727;SDS011;58314;47.722;17.652;2022-08-23T04:14:44;0.93;;;0.70;;
70727;SDS011;58314;47.722;17.652;2022-08-23T04:17:45;1.98;;;0.70;;
70727;SDS011;58314;47.722;17.652;2022-08-23T04:20:46;1.08;;;0.80;;
70727;SDS011;58314;47.722;17.652;2022-08-23T04:23:47;1.33;;;0.90;;
70727;SDS011;58314;47.722;17.652;2022-08-23T04:26:48;1.40;;;0.70;;
70727;SDS011;58314;47.722;17.652;2022-08-23T04:29:48;2.78;;;0.77;;
70727;SDS011;58314;47.722;17.652;2022-08-23T04:32:49;1.50;;;0.80;;
70727;SDS011;58314;47.722;17.652;2022-08-23T04:35:50;2.53;;;0.90;;
70727;SDS011;58314;47.722;17.652;2022-08-23T04:38:50;1.05;;;0.80;;
70727;SDS011;58314;47.722;17.652;2022-08-23T04:41:51;1.17;;;0.70;;
70727;SDS011;58314;47.722;17.652;2022-08-23T04:45:10;1.02;;;0.90;;
70727;SDS011;58314;47.722;17.652;2022-08-23T04:48:11;0.93;;;0.60;;
70727;SDS011;58314;47.722;17.652;2022-08-23T04:51:13;1.80;;;0.77;;
70727;SDS011;58314;47.722;17.652;2022-08-23T04:54:14;1.67;;;0.82;;
70727;SDS011;58314;47.722;17.652;2022-08-23T04:57:15;2.03;;;0.55;;
70727;SDS011;58314;47.722;17.652;2022-08-23T05:00:16;1.48;;;0.70;;
70727;SDS011;58314;47.722;17.652;2022-08-23T05:03:17;0.63;;;0.60;;
70727;SDS011;58314;47.722;17.652;2022-08-23T05:06:17;0.60;;;0.50;;
70727;SDS011;58314;47.722;17.652;2022-08-23T05:09:18;0.98;;;0.60;;
70727;SDS011;58314;47.722;17.652;2022-08-23T05:12:19;0.95;;;0.63;;
70727;SDS011;58314;47.722;17.652;2022-08-23T05:15:19;0.82;;;0.45;;
70727;SDS011;58314;47.722;17.652;2022-08-23T05:18:20;0.80;;;0.50;;
70727;SDS011;58314;47.722;17.652;2022-08-23T05:21:22;1.20;;;0.50;;
70727;SDS011;58314;47.722;17.652;2022-08-23T05:24:24;0.93;;;0.40;;
70727;SDS011;58314;47.722;17.652;2022-08-23T05:27:24;2.72;;;1.30;;
70727;SDS011;58314;47.722;17.652;2022-08-23T05:30:25;1.13;;;0.57;;
70727;SDS011;58314;47.722;17.652;2022-08-23T05:33:26;0.88;;;0.40;;
70727;SDS011;58314;47.722;17.652;2022-08-23T05:36:48;1.45;;;0.60;;
70727;SDS011;58314;47.722;17.652;2022-08-23T05:40:10;0.82;;;0.40;;
70727;SDS011;58314;47.722;17.652;2022-08-23T05:43:31;0.98;;;0.40;;
70727;SDS011;58314;47.722;17.652;2022-08-23T05:46:52;2.53;;;0.52;;
70727;SDS011;58314;47.722;17.652;2022-08-23T05:50:13;0.45;;;0.30;;
70727;SDS011;58314;47.722;17.652;2022-08-23T05:53:33;0.82;;;0.38;;
70727;SDS011;58314;47.722;17.652;2022-08-23T05:56:54;0.63;;;0.22;;
70727;SDS011;58314;47.722;17.652;2022-08-23T06:00:14;2.25;;;0.40;;
70727;SDS011;58314;47.722;17.652;2022-08-23T06:03:35;0.57;;;0.40;;
70727;SDS011;58314;47.722;17.652;2022-08-23T06:06:56;1.67;;;0.40;;
70727;SDS011;58314;47.722;17.652;2022-08-23T06:10:18;0.40;;;0.30;;
70727;SDS011;58314;47.722;17.652;2022-08-23T06:13:41;0.38;;;0.30;;
70727;SDS011;58314;47.722;17.652;2022-08-23T06:17:04;0.60;;;0.40;;
70727;SDS011;58314;47.722;17.652;2022-08-23T06:20:04;0.68;;;0.35;;
70727;SDS011;58314;47.722;17.652;2022-08-23T06:23:06;0.40;;;0.40;;
70727;SDS011;58314;47.722;17.652;2022-08-23T06:26:11;0.40;;;0.40;;
70727;SDS011;58314;47.722;17.652;2022-08-23T06:29:14;1.30;;;0.55;;
70727;SDS011;58314;47.722;17.652;2022-08-23T06:32:17;0.30;;;0.30;;
70727;SDS011;58314;47.722;17.652;2022-08-23T06:35:18;0.80;;;0.30;;
70727;SDS011;58314;47.722;17.652;2022-08-23T06:38:19;1.25;;;0.40;;
70727;SDS011;58314;47.722;17.652;2022-08-23T06:41:19;1.13;;;0.40;;
70727;SDS011;58314;47.722;17.652;2022-08-23T06:44:20;1.00;;;0.60;;
70727;SDS011;58314;47.722;17.652;2022-08-23T06:47:21;0.60;;;0.30;;
70727;SDS011;58314;47.722;17.652;2022-08-23T06:50:22;0.47;;;0.40;;
70727;SDS011;58314;47.722;17.652;2022-08-23T06:53:22;0.40;;;0.40;;
70727;SDS011;58314;47.722;17.652;2022-08-23T06:56:24;0.68;;;0.47;;
70727;SDS011;58314;47.722;17.652;2022-08-23T06:59:26;1.65;;;0.40;;
70727;SDS011;58314;47.722;17.652;2022-08-23T07:02:27;0.30;;;0.30;;
70727;SDS011;58314;47.722;17.652;2022-08-23T07:05:28;0.57;;;0.30;;
70727;SDS011;58314;47.722;17.652;2022-08-23T07:08:30;0.30;;;0.20;;
70727;SDS011;58314;47.722;17.652;2022-08-23T07:11:32;1.10;;;0.40;;
70727;SDS011;58314;47.722;17.652;2022-08-23T07:14:33;1.33;;;0.40;;
70727;SDS011;58314;47.722;17.652;2022-08-23T07:17:34;1.50;;;0.60;;
70727;SDS011;58314;47.722;17.652;2022-08-23T07:20:35;0.47;;;0.40;;
70727;SDS011;58314;47.722;17.652;2022-08-23T07:23:35;0.85;;;0.40;;
70727;SDS011;58314;47.722;17.652;2022-08-23T07:26:36;0.45;;;0.40;;
70727;SDS011;58314;47.722;17.652;2022-08-23T07:29:38;0.45;;;0.30;;
70727;SDS011;58314;47.722;17.652;2022-08-23T07:32:39;0.50;;;0.38;;
70727;SDS011;58314;47.722;17.652;2022-08-23T07:35:47;0.63;;;0.40;;
70727;SDS011;58314;47.722;17.652;2022-08-23T07:38:49;0.98;;;0.30;;
70727;SDS011;58314;47.722;17.652;2022-08-23T07:41:49;0.60;;;0.40;;
70727;SDS011;58314;47.722;17.652;2022-08-23T07:44:52;0.57;;;0.40;;
70727;SDS011;58314;47.722;17.652;2022-08-23T07:47:52;1.15;;;0.40;;
70727;SDS011;58314;47.722;17.652;2022-08-23T07:50:54;0.45;;;0.43;;
70727;SDS011;58314;47.722;17.652;2022-08-23T07:53:59;1.38;;;0.40;;
70727;SDS011;58314;47.722;17.652;2022-08-23T07:57:01;1.63;;;0.40;;
70727;SDS011;58314;47.722;17.652;2022-08-23T08:00:02;1.48;;;0.50;;
70727;SDS011;58314;47.722;17.652;2022-08-23T08:03:03;1.58;;;0.32;;
70727;SDS011;58314;47.722;17.652;2022-08-23T08:06:08;1.55;;;0.60;;
70727;SDS011;58314;47.722;17.652;2022-08-23T08:09:12;0.57;;;0.47;;
70727;SDS011;58314;47.722;17.652;2022-08-23T08:12:14;0.60;;;0.40;;
70727;SDS011;58314;47.722;17.652;2022-08-23T08:15:15;0.55;;;0.30;;
70727;SDS011;58314;47.722;17.652;2022-08-23T08:18:17;0.43;;;0.32;;
70727;SDS011;58314;47.722;17.652;2022-08-23T08:21:18;0.75;;;0.40;;
70727;SDS011;58314;47.722;17.652;2022-08-23T08:24:18;2.08;;;0.52;;
70727;SDS011;58314;47.722;17.652;2022-08-23T08:27:19;0.60;;;0.40;;
70727;SDS011;58314;47.722;17.652;2022-08-23T08:30:20;1.13;;;0.40;;
70727;SDS011;58314;47.722;17.652;2022-08-23T08:33:20;0.80;;;0.50;;
70727;SDS011;58314;47.722;17.652;2022-08-23T08:36:28;1.05;;;0.40;;
70727;SDS011;58314;47.722;17.652;2022-08-23T08:39:40;1.48;;;0.65;;
70727;SDS011;58314;47.722;17.652;2022-08-23T08:46:06;1.25;;;0.60;;
70727;SDS011;58314;47.722;17.652;2022-08-23T08:49:35;0.63;;;0.40;;
70727;SDS011;58314;47.722;17.652;2022-08-23T08:52:35;2.22;;;0.85;;
70727;SDS011;58314;47.722;17.652;2022-08-23T08:55:50;1.02;;;0.68;;
70727;SDS011;58314;47.722;17.652;2022-08-23T08:58:56;0.88;;;0.40;;
70727;SDS011;58314;47.722;17.652;2022-08-23T09:02:00;0.73;;;0.52;;
70727;SDS011;58314;47.722;17.652;2022-08-23T09:05:03;0.70;;;0.40;;
70727;SDS011;58314;47.722;17.652;2022-08-23T09:08:16;0.68;;;0.50;;
70727;SDS011;58314;47.722;17.652;2022-08-23T09:11:36;0.77;;;0.65;;
70727;SDS011;58314;47.722;17.652;2022-08-23T09:15:17;0.60;;;0.50;;
70727;SDS011;58314;47.722;17.652;2022-08-23T09:18:24;1.03;;;0.60;;
70727;SDS011;58314;47.722;17.652;2022-08-23T09:21:25;0.60;;;0.50;;
70727;SDS011;58314;47.722;17.652;2022-08-23T09:24:26;1.40;;;0.47;;
70727;SDS011;58314;47.722;17.652;2022-08-23T09:27:29;0.47;;;0.40;;
70727;SDS011;58314;47.722;17.652;2022-08-23T09:30:44;0.60;;;0.40;;
70727;SDS011;58314;47.722;17.652;2022-08-23T09:33:45;1.58;;;0.40;;
70727;SDS011;58314;47.722;17.652;2022-08-23T09:36:46;2.35;;;0.50;;
70727;SDS011;58314;47.722;17.652;2022-08-23T09:43:25;0.93;;;0.52;;
70727;SDS011;58314;47.722;17.652;2022-08-23T09:46:29;1.15;;;0.70;;
70727;SDS011;58314;47.722;17.652;2022-08-23T09:49:32;0.90;;;0.50;;
70727;SDS011;58314;47.722;17.652;2022-08-23T09:52:34;0.98;;;0.60;;
70727;SDS011;58314;47.722;17.652;2022-08-23T09:55:42;1.00;;;0.50;;
70727;SDS011;58314;47.722;17.652;2022-08-23T09:58:49;1.10;;;0.50;;
70727;SDS011;58314;47.722;17.652;2022-08-23T10:01:53;0.68;;;0.50;;
70727;SDS011;58314;47.722;17.652;2022-08-23T10:05:02;1.73;;;0.60;;
70727;SDS011;58314;47.722;17.652;2022-08-23T10:08:04;1.48;;;0.52;;
70727;SDS011;58314;47.722;17.652;2022-08-23T10:11:19;0.70;;;0.50;;
70727;SDS011;58314;47.722;17.652;2022-08-23T10:14:24;2.78;;;0.65;;
70727;SDS011;58314;47.722;17.652;2022-08-23T10:17:35;1.02;;;0.60;;
70727;SDS011;58314;47.722;17.652;2022-08-23T10:41:11;1.27;;;0.60;;
70727;SDS011;58314;47.722;17.652;2022-08-23T10:50:27;2.58;;;0.80;;
70727;SDS011;58314;47.722;17.652;2022-08-23T10:53:43;0.68;;;0.40;;
70727;SDS011;58314;47.722;17.652;2022-08-23T10:56:49;0.93;;;0.40;;
70727;SDS011;58314;47.722;17.652;2022-08-23T10:59:51;0.70;;;0.50;;
70727;SDS011;58314;47.722;17.652;2022-08-23T11:03:06;0.85;;;0.40;;
70727;SDS011;58314;47.722;17.652;2022-08-23T11:09:36;0.65;;;0.50;;
70727;SDS011;58314;47.722;17.652;2022-08-23T11:12:54;1.15;;;0.60;;
70727;SDS011;58314;47.722;17.652;2022-08-23T11:19:03;1.80;;;0.50;;
70727;SDS011;58314;47.722;17.652;2022-08-23T11:22:16;1.13;;;0.68;;
70727;SDS011;58314;47.722;17.652;2022-08-23T11:31:29;1.15;;;0.63;;
70727;SDS011;58314;47.722;17.652;2022-08-23T11:38:05;1.20;;;0.60;;
70727;SDS011;58314;47.722;17.652;2022-08-23T11:41:19;0.65;;;0.60;;
70727;SDS011;58314;47.722;17.652;2022-08-23T11:44:36;0.80;;;0.50;;
70727;SDS011;58314;47.722;17.652;2022-08-23T11:47:42;1.00;;;0.70;;
70727;SDS011;58314;47.722;17.652;2022-08-23T12:00:20;2.85;;;0.80;;
70727;SDS011;58314;47.722;17.652;2022-08-23T12:06:50;0.90;;;0.73;;
70727;SDS011;58314;47.722;17.652;2022-08-23T12:09:56;1.33;;;0.85;;
70727;SDS011;58314;47.722;17.652;2022-08-23T12:13:43;1.35;;;0.80;;
70727;SDS011;58314;47.722;17.652;2022-08-23T12:19:28;1.60;;;1.20;;
70727;SDS011;58314;47.722;17.652;2022-08-23T12:26:08;1.40;;;1.30;;
70727;SDS011;58314;47.722;17.652;2022-08-23T12:39:49;1.50;;;1.30;;
70727;SDS011;58314;47.722;17.652;2022-08-23T12:42:52;1.40;;;1.30;;
70727;SDS011;58314;47.722;17.652;2022-08-23T12:46:07;1.90;;;1.40;;
70727;SDS011;58314;47.722;17.652;2022-08-23T12:49:09;1.55;;;1.20;;
70727;SDS011;58314;47.722;17.652;2022-08-23T12:52:27;1.77;;;1.27;;
70727;SDS011;58314;47.722;17.652;2022-08-23T12:55:31;3.05;;;1.30;;
70727;SDS011;58314;47.722;17.652;2022-08-23T12:58:37;1.42;;;1.30;;
70727;SDS011;58314;47.722;17.652;2022-08-23T13:01:45;1.55;;;1.30;;
70727;SDS011;58314;47.722;17.652;2022-08-23T13:04:45;1.50;;;1.40;;
70727;SDS011;58314;47.722;17.652;2022-08-23T13:07:46;1.55;;;1.45;;
70727;SDS011;58314;47.722;17.652;2022-08-23T13:10:47;4.30;;;1.50;;
70727;SDS011;58314;47.722;17.652;2022-08-23T13:13:48;1.95;;;1.63;;
70727;SDS011;58314;47.722;17.652;2022-08-23T13:16:49;4.00;;;1.60;;
70727;SDS011;58314;47.722;17.652;2022-08-23T13:19:51;2.38;;;1.70;;
70727;SDS011;58314;47.722;17.652;2022-08-23T13:23:02;1.75;;;1.38;;
70727;SDS011;58314;47.722;17.652;2022-08-23T13:29:47;1.35;;;1.15;;
70727;SDS011;58314;47.722;17.652;2022-08-23T13:36:15;2.28;;;1.08;;
70727;SDS011;58314;47.722;17.652;2022-08-23T13:39:20;1.75;;;1.10;;
70727;SDS011;58314;47.722;17.652;2022-08-23T13:42:23;1.23;;;1.10;;
70727;SDS011;58314;47.722;17.652;2022-08-23T13:45:30;1.58;;;1.10;;
70727;SDS011;58314;47.722;17.652;2022-08-23T13:48:32;1.48;;;1.20;;
70727;SDS011;58314;47.722;17.652;2022-08-23T13:51:35;1.73;;;1.10;;
70727;SDS011;58314;47.722;17.652;2022-08-23T13:54:38;1.58;;;1.13;;
70727;SDS011;58314;47.722;17.652;2022-08-23T13:57:38;1.30;;;1.20;;
70727;SDS011;58314;47.722;17.652;2022-08-23T14:00:40;2.65;;;1.05;;
70727;SDS011;58314;47.722;17.652;2022-08-23T14:03:40;1.40;;;1.15;;
70727;SDS011;58314;47.722;17.652;2022-08-23T14:06:42;1.67;;;1.23;;
70727;SDS011;58314;47.722;17.652;2022-08-23T14:09:43;1.33;;;1.00;;
70727;SDS011;58314;47.722;17.652;2022-08-23T14:12:44;1.95;;;1.00;;
70727;SDS011;58314;47.722;17.652;2022-08-23T14:15:46;3.13;;;1.20;;
70727;SDS011;58314;47.722;17.652;2022-08-23T14:18:46;1.48;;;1.10;;
70727;SDS011;58314;47.722;17.652;2022-08-23T14:21:47;1.73;;;1.40;;
70727;SDS011;58314;47.722;17.652;2022-08-23T14:24:48;3.35;;;1.30;;
70727;SDS011;58314;47.722;17.652;2022-08-23T14:27:49;3.60;;;2.50;;
70727;SDS011;58314;47.722;17.652;2022-08-23T14:30:49;2.63;;;2.38;;
70727;SDS011;58314;47.722;17.652;2022-08-23T14:33:50;1.48;;;1.35;;
70727;SDS011;58314;47.722;17.652;2022-08-23T14:36:51;2.45;;;1.25;;
70727;SDS011;58314;47.722;17.652;2022-08-23T14:39:52;2.42;;;1.20;;
70727;SDS011;58314;47.722;17.652;2022-08-23T14:42:53;1.63;;;1.10;;
70727;SDS011;58314;47.722;17.652;2022-08-23T14:45:54;1.58;;;1.35;;
70727;SDS011;58314;47.722;17.652;2022-08-23T14:48:56;1.80;;;1.25;;
70727;SDS011;58314;47.722;17.652;2022-08-23T14:51:57;1.08;;;0.98;;
70727;SDS011;58314;47.722;17.652;2022-08-23T14:54:58;1.35;;;1.00;;
70727;SDS011;58314;47.722;17.652;2022-08-23T14:57:58;2.60;;;1.20;;
70727;SDS011;58314;47.722;17.652;2022-08-23T15:00:59;1.20;;;1.10;;
70727;SDS011;58314;47.722;17.652;2022-08-23T15:04:00;2.38;;;1.05;;
70727;SDS011;58314;47.722;17.652;2022-08-23T15:07:01;2.50;;;1.48;;
70727;SDS011;58314;47.722;17.652;2022-08-23T15:10:04;1.40;;;1.20;;
70727;SDS011;58314;47.722;17.652;2022-08-23T15:13:05;1.08;;;0.88;;
70727;SDS011;58314;47.722;17.652;2022-08-23T15:16:07;1.38;;;1.10;;
70727;SDS011;58314;47.722;17.652;2022-08-23T15:19:09;1.30;;;1.20;;
70727;SDS011;58314;47.722;17.652;2022-08-23T15:22:10;1.75;;;1.30;;
70727;SDS011;58314;47.722;17.652;2022-08-23T15:25:11;1.90;;;1.60;;
70727;SDS011;58314;47.722;17.652;2022-08-23T15:28:14;1.40;;;1.30;;
70727;SDS011;58314;47.722;17.652;2022-08-23T15:31:16;1.85;;;1.58;;
70727;SDS011;58314;47.722;17.652;2022-08-23T15:34:18;1.50;;;1.20;;
70727;SDS011;58314;47.722;17.652;2022-08-23T15:37:19;2.28;;;1.38;;
70727;SDS011;58314;47.722;17.652;2022-08-23T15:40:21;1.30;;;1.20;;
70727;SDS011;58314;47.722;17.652;2022-08-23T15:43:23;1.40;;;1.10;;
70727;SDS011;58314;47.722;17.652;2022-08-23T15:46:24;1.30;;;1.08;;
70727;SDS011;58314;47.722;17.652;2022-08-23T15:49:25;2.65;;;1.02;;
70727;SDS011;58314;47.722;17.652;2022-08-23T15:52:27;1.42;;;0.93;;
70727;SDS011;58314;47.722;17.652;2022-08-23T15:55:30;1.55;;;0.77;;
70727;SDS011;58314;47.722;17.652;2022-08-23T15:58:31;1.15;;;0.70;;
70727;SDS011;58314;47.722;17.652;2022-08-23T16:01:32;3.00;;;0.73;;
70727;SDS011;58314;47.722;17.652;2022-08-23T16:04:34;0.77;;;0.50;;
70727;SDS011;58314;47.722;17.652;2022-08-23T16:07:36;4.53;;;3.88;;
70727;SDS011;58314;47.722;17.652;2022-08-23T16:10:39;1.45;;;1.25;;
70727;SDS011;58314;47.722;17.652;2022-08-23T16:13:41;1.27;;;0.98;;
70727;SDS011;58314;47.722;17.652;2022-08-23T16:16:43;2.95;;;0.80;;
70727;SDS011;58314;47.722;17.652;2022-08-23T16:19:46;3.85;;;1.25;;
70727;SDS011;58314;47.722;17.652;2022-08-23T16:22:48;2.90;;;0.90;;
70727;SDS011;58314;47.722;17.652;2022-08-23T16:25:49;0.82;;;0.60;;
70727;SDS011;58314;47.722;17.652;2022-08-23T16:28:51;1.05;;;0.70;;
70727;SDS011;58314;47.722;17.652;2022-08-23T16:31:53;1.35;;;0.77;;
70727;SDS011;58314;47.722;17.652;2022-08-23T16:34:53;0.98;;;0.80;;
70727;SDS011;58314;47.722;17.652;2022-08-23T16:37:54;1.40;;;1.00;;
70727;SDS011;58314;47.722;17.652;2022-08-23T16:40:55;1.83;;;1.10;;
70727;SDS011;58314;47.722;17.652;2022-08-23T16:43:56;1.35;;;1.00;;
70727;SDS011;58314;47.722;17.652;2022-08-23T16:46:57;1.10;;;1.00;;
70727;SDS011;58314;47.722;17.652;2022-08-23T16:49:57;2.72;;;1.27;;
70727;SDS011;58314;47.722;17.652;2022-08-23T16:52:58;1.75;;;1.30;;
70727;SDS011;58314;47.722;17.652;2022-08-23T16:55:59;1.63;;;1.38;;
70727;SDS011;58314;47.722;17.652;2022-08-23T16:59:00;1.40;;;1.10;;
70727;SDS011;58314;47.722;17.652;2022-08-23T17:02:02;2.28;;;1.40;;
70727;SDS011;58314;47.722;17.652;2022-08-23T17:05:05;2.38;;;1.30;;
70727;SDS011;58314;47.722;17.652;2022-08-23T17:08:08;2.25;;;1.40;;
70727;SDS011;58314;47.722;17.652;2022-08-23T17:11:09;1.98;;;1.35;;
70727;SDS011;58314;47.722;17.652;2022-08-23T17:14:13;3.92;;;3.00;;
70727;SDS011;58314;47.722;17.652;2022-08-23T17:17:14;2.85;;;1.98;;
70727;SDS011;58314;47.722;17.652;2022-08-23T17:20:16;2.50;;;1.80;;
70727;SDS011;58314;47.722;17.652;2022-08-23T17:23:18;3.00;;;2.03;;
70727;SDS011;58314;47.722;17.652;2022-08-23T17:26:19;2.05;;;1.63;;
70727;SDS011;58314;47.722;17.652;2022-08-23T17:29:20;3.47;;;2.00;;
70727;SDS011;58314;47.722;17.652;2022-08-23T17:32:21;3.03;;;2.20;;
70727;SDS011;58314;47.722;17.652;2022-08-23T17:35:24;3.20;;;2.67;;
70727;SDS011;58314;47.722;17.652;2022-08-23T17:38:27;2.30;;;2.10;;
70727;SDS011;58314;47.722;17.652;2022-08-23T17:41:28;3.75;;;2.58;;
70727;SDS011;58314;47.722;17.652;2022-08-23T17:44:28;3.83;;;2.50;;
70727;SDS011;58314;47.722;17.652;2022-08-23T17:47:29;3.47;;;3.03;;
70727;SDS011;58314;47.722;17.652;2022-08-23T17:50:30;4.90;;;4.40;;
70727;SDS011;58314;47.722;17.652;2022-08-23T17:53:31;3.17;;;2.58;;
70727;SDS011;58314;47.722;17.652;2022-08-23T17:56:33;2.80;;;2.30;;
70727;SDS011;58314;47.722;17.652;2022-08-23T17:59:34;2.45;;;2.25;;
70727;SDS011;58314;47.722;17.652;2022-08-23T18:02:36;2.47;;;2.10;;
70727;SDS011;58314;47.722;17.652;2022-08-23T18:05:37;2.78;;;2.03;;
70727;SDS011;58314;47.722;17.652;2022-08-23T18:08:40;3.75;;;2.20;;
70727;SDS011;58314;47.722;17.652;2022-08-23T18:11:41;2.60;;;2.40;;
70727;SDS011;58314;47.722;17.652;2022-08-23T18:14:45;2.83;;;2.53;;
70727;SDS011;58314;47.722;17.652;2022-08-23T18:20:51;3.10;;;2.30;;
70727;SDS011;58314;47.722;17.652;2022-08-23T18:23:53;2.85;;;2.30;;
70727;SDS011;58314;47.722;17.652;2022-08-23T18:26:56;2.63;;;2.42;;
70727;SDS011;58314;47.722;17.652;2022-08-23T18:30:16;3.03;;;2.35;;
70727;SDS011;58314;47.722;17.652;2022-08-23T18:33:18;2.95;;;2.65;;
70727;SDS011;58314;47.722;17.652;2022-08-23T18:36:20;5.28;;;2.80;;
70727;SDS011;58314;47.722;17.652;2022-08-23T18:39:21;3.03;;;2.47;;
70727;SDS011;58314;47.722;17.652;2022-08-23T18:42:22;2.67;;;2.47;;
70727;SDS011;58314;47.722;17.652;2022-08-23T18:45:23;3.17;;;2.80;;
70727;SDS011;58314;47.722;17.652;2022-08-23T18:48:24;3.55;;;2.70;;
70727;SDS011;58314;47.722;17.652;2022-08-23T18:51:25;3.28;;;2.58;;
70727;SDS011;58314;47.722;17.652;2022-08-23T20:02:07;5.53;;;4.38;;
70727;SDS011;58314;47.722;17.652;2022-08-23T20:05:08;3.00;;;2.58;;
70727;SDS011;58314;47.722;17.652;2022-08-23T20:08:09;2.75;;;2.50;;
70727;SDS011;58314;47.722;17.652;2022-08-23T20:11:10;3.00;;;2.70;;
70727;SDS011;58314;47.722;17.652;2022-08-23T20:14:10;2.67;;;2.47;;
70727;SDS011;58314;47.722;17.652;2022-08-23T20:17:11;3.50;;;3.17;;
70727;SDS011;58314;47.722;17.652;2022-08-23T20:20:12;3.03;;;2.72;;
70727;SDS011;58314;47.722;17.652;2022-08-23T20:23:13;3.67;;;2.97;;
70727;SDS011;58314;47.722;17.652;2022-08-23T20:26:34;3.50;;;3.17;;
70727;SDS011;58314;47.722;17.652;2022-08-23T20:29:36;4.63;;;3.20;;
70727;SDS011;58314;47.722;17.652;2022-08-23T20:32:36;3.03;;;2.72;;
70727;SDS011;58314;47.722;17.652;2022-08-23T20:35:37;4.80;;;3.50;;
70727;SDS011;58314;47.722;17.652;2022-08-23T20:38:39;5.13;;;3.85;;
70727;SDS011;58314;47.722;17.652;2022-08-23T20:41:40;6.93;;;5.90;;
70727;SDS011;58314;47.722;17.652;2022-08-23T20:44:41;4.38;;;3.95;;
70727;SDS011;58314;47.722;17.652;2022-08-23T20:47:41;3.95;;;3.55;;